Time;durP1;ratioP1;P1;durP2;ratioP2;P2;SDS_P1;SDS_P2;PMS_P1;PMS_P2;Temp;Humidity;BMP_temperature;BMP_pressure;BME280_temperature;BME280_humidity;BME280_pressure;Samples;Min_cycle;Max_cycle;Signal;HPM_P1;HPM_P2
2022/01/20 00:00:14;;;;;;;25.23;5.70;;;4.20;99.90;;;;;;4846498;29;20122;-66
2022/01/20 00:02:40;;;;;;;16.92;5.28;;;4.20;99.90;;;;;;4857533;29;20088;-66
2022/01/20 00:26:55;;;;;;;27.52;3.80;;;3.90;99.90;;;;;;4857381;29;20044;-66
2022/01/20 00:29:33;;;;;;;24.40;3.83;;;4.00;99.90;;;;;;4844451;29;20060;-67
2022/01/20 00:32:11;;;;;;;28.88;2.70;;;3.90;99.90;;;;;;4849443;29;20025;-66
2022/01/20 00:37:21;;;;;;;28.95;3.67;;;3.80;99.90;;;;;;4861892;29;20029;-66
2022/01/20 00:39:46;;;;;;;24.20;3.13;;;3.80;99.90;;;;;;4850455;29;20809;-66
2022/01/20 00:42:13;;;;;;;26.58;3.58;;;3.80;99.90;;;;;;4860440;29;20021;-66
2022/01/20 00:44:38;;;;;;;24.92;3.30;;;3.70;99.90;;;;;;4848985;29;20075;-67
2022/01/20 00:47:04;;;;;;;39.08;4.10;;;3.70;99.90;;;;;;4836052;29;20057;-67
2022/01/20 00:49:29;;;;;;;27.38;2.88;;;3.60;99.90;;;;;;4866055;29;20048;-67
2022/01/20 00:51:55;;;;;;;28.65;2.92;;;3.60;99.90;;;;;;4859998;29;20033;-67
2022/01/20 00:54:21;;;;;;;23.13;3.10;;;3.70;99.90;;;;;;4856421;29;20122;-67
2022/01/20 00:56:46;;;;;;;24.25;2.92;;;3.70;99.90;;;;;;4841647;29;20937;-67
2022/01/20 00:59:12;;;;;;;28.23;3.35;;;3.70;99.90;;;;;;4839667;29;20039;-67
2022/01/20 01:01:37;;;;;;;25.02;3.72;;;3.70;99.90;;;;;;4846723;29;20068;-67
2022/01/20 01:04:03;;;;;;;22.38;3.85;;;3.70;99.90;;;;;;4851060;29;20033;-66
2022/01/20 01:09:10;;;;;;;24.55;3.15;;;3.60;99.90;;;;;;4860688;29;20037;-67
2022/01/20 01:11:36;;;;;;;21.55;2.92;;;3.60;99.90;;;;;;4850416;29;20040;-67
2022/01/20 01:14:03;;;;;;;24.60;2.72;;;3.60;99.90;;;;;;4846703;29;20046;-66
2022/01/20 01:19:59;;;;;;;21.20;2.90;;;3.60;99.90;;;;;;4845175;29;20033;-67
2022/01/20 01:24:37;;;;;;;20.45;3.72;;;3.50;99.90;;;;;;4851687;29;20064;-65
2022/01/20 01:27:03;;;;;;;27.45;3.10;;;3.50;99.90;;;;;;4849779;29;20040;-66
2022/01/20 01:30:03;;;;;;;29.10;3.47;;;3.50;99.90;;;;;;4851192;29;20033;-66
2022/01/20 01:33:09;;;;;;;21.42;3.28;;;3.50;99.90;;;;;;4850263;29;20097;-67
2022/01/20 01:35:15;;;;;;;22.95;2.65;;;3.50;99.90;;;;;;4842082;29;20044;-67
2022/01/20 01:40:07;;;;;;;21.63;3.38;;;3.40;99.90;;;;;;4854160;29;20030;-67
2022/01/20 01:42:42;;;;;;;22.27;2.45;;;3.40;99.90;;;;;;4849239;29;20514;-67
2022/01/20 01:45:08;;;;;;;27.35;3.60;;;3.40;99.90;;;;;;4843759;29;20034;-66
2022/01/20 01:47:33;;;;;;;22.80;2.90;;;3.30;99.90;;;;;;4839985;29;20105;-67
2022/01/20 01:50:01;;;;;;;28.15;3.13;;;3.30;99.90;;;;;;4858820;29;20854;-67
2022/01/20 01:52:26;;;;;;;25.83;2.78;;;3.20;99.90;;;;;;4840465;29;20060;-67
2022/01/20 01:54:52;;;;;;;17.45;2.28;;;3.20;99.90;;;;;;4850408;29;20148;-67
2022/01/20 01:57:17;;;;;;;17.45;2.40;;;3.10;99.90;;;;;;4842058;29;20035;-66
2022/01/20 01:59:43;;;;;;;16.63;2.03;;;3.10;99.90;;;;;;4850260;29;20028;-67
2022/01/20 02:02:24;;;;;;;16.70;2.30;;;3.10;99.90;;;;;;4844016;29;20375;-67
2022/01/20 02:04:50;;;;;;;20.95;2.75;;;3.10;99.90;;;;;;4859701;29;20053;-67
2022/01/20 02:21:26;;;;;;;15.95;2.83;;;2.90;99.90;;;;;;4848513;29;20033;-67
2022/01/20 02:23:56;;;;;;;14.93;2.03;;;2.80;99.90;;;;;;4864494;29;20033;-67
2022/01/20 02:26:22;;;;;;;21.85;1.95;;;2.80;99.90;;;;;;4840185;29;20737;-67
2022/01/20 02:28:47;;;;;;;13.38;1.65;;;2.80;99.90;;;;;;4833224;29;20036;-67
2022/01/20 02:31:15;;;;;;;12.00;1.70;;;2.70;99.90;;;;;;4837355;29;20045;-67
2022/01/20 02:33:40;;;;;;;17.02;2.15;;;2.70;99.90;;;;;;4849921;29;20044;-67
2022/01/20 02:36:09;;;;;;;24.85;2.90;;;2.60;99.90;;;;;;4863051;29;20040;-67
2022/01/20 02:38:40;;;;;;;12.75;1.98;;;2.60;99.90;;;;;;4845039;29;20040;-67
2022/01/20 02:46:34;;;;;;;17.27;1.83;;;2.50;99.90;;;;;;4847823;29;20037;-67
2022/01/20 02:49:00;;;;;;;21.65;1.92;;;2.50;99.90;;;;;;4859977;29;20475;-67
2022/01/20 02:51:26;;;;;;;11.60;1.85;;;2.50;99.90;;;;;;4844819;29;20039;-67
2022/01/20 02:53:54;;;;;;;14.70;1.75;;;2.50;99.90;;;;;;4847460;29;20861;-67
2022/01/20 02:56:20;;;;;;;18.85;2.90;;;2.50;99.90;;;;;;4848252;29;20036;-67
2022/01/20 02:58:45;;;;;;;21.58;3.00;;;2.50;99.90;;;;;;4836123;29;20140;-67
2022/01/20 03:01:11;;;;;;;21.98;2.60;;;2.50;99.90;;;;;;4842970;29;20045;-67
2022/01/20 03:03:37;;;;;;;19.67;3.22;;;2.60;99.90;;;;;;4852845;29;20029;-67
2022/01/20 03:06:02;;;;;;;22.65;2.35;;;2.60;99.90;;;;;;4835698;29;20094;-67
2022/01/20 03:08:28;;;;;;;11.15;2.20;;;2.60;99.90;;;;;;4846552;29;20048;-67
2022/01/20 03:10:53;;;;;;;21.83;3.17;;;2.60;99.90;;;;;;4855399;29;20327;-67
2022/01/20 03:13:19;;;;;;;16.05;2.17;;;2.60;99.90;;;;;;4845225;29;20065;-67
2022/01/20 03:15:44;;;;;;;16.83;2.30;;;2.60;99.90;;;;;;4851252;29;20766;-67
2022/01/20 03:18:10;;;;;;;23.60;2.53;;;2.60;99.90;;;;;;4864137;29;20471;-67
2022/01/20 03:20:35;;;;;;;15.88;2.13;;;2.50;99.90;;;;;;4840824;29;20067;-67
2022/01/20 03:23:01;;;;;;;23.95;2.55;;;2.50;99.90;;;;;;4850635;29;20052;-67
2022/01/20 03:25:26;;;;;;;25.85;2.00;;;2.40;99.90;;;;;;4851474;29;20065;-67
2022/01/20 03:27:52;;;;;;;26.65;3.65;;;2.40;99.90;;;;;;4861271;29;20713;-67
2022/01/20 03:30:18;;;;;;;24.75;3.35;;;2.40;99.90;;;;;;4858353;29;20041;-67
2022/01/20 03:32:44;;;;;;;22.55;3.45;;;2.30;99.90;;;;;;4862772;29;20037;-67
2022/01/20 03:35:09;;;;;;;27.50;3.95;;;2.30;99.90;;;;;;4847884;29;21024;-67
2022/01/20 03:37:36;;;;;;;30.80;3.95;;;2.30;99.90;;;;;;4846269;29;20037;-67
2022/01/20 03:40:04;;;;;;;16.50;2.65;;;2.30;99.90;;;;;;4853203;29;20022;-67
2022/01/20 03:42:29;;;;;;;22.70;3.20;;;2.30;99.90;;;;;;4846022;29;20030;-67
2022/01/20 03:44:55;;;;;;;28.33;2.78;;;2.40;99.90;;;;;;4842584;29;20040;-67
2022/01/20 03:47:24;;;;;;;23.58;3.35;;;2.50;99.90;;;;;;4849259;29;20045;-67
2022/01/20 03:49:54;;;;;;;29.63;3.50;;;2.50;99.90;;;;;;4852955;29;20029;-67
2022/01/20 03:52:20;;;;;;;27.52;4.07;;;2.60;99.90;;;;;;4861873;29;20045;-67
2022/01/20 03:54:46;;;;;;;38.10;3.92;;;2.60;99.90;;;;;;4830183;29;20037;-66
2022/01/20 03:57:41;;;;;;;22.30;3.00;;;2.70;99.90;;;;;;4843744;29;20056;-67
2022/01/20 04:00:24;;;;;;;31.45;3.28;;;2.80;99.90;;;;;;4850522;29;20037;-66
2022/01/20 04:03:10;;;;;;;26.63;3.15;;;2.90;99.90;;;;;;4851654;29;20093;-67
2022/01/20 04:05:57;;;;;;;22.70;2.85;;;3.00;99.90;;;;;;4845038;29;20065;-68
2022/01/20 04:08:40;;;;;;;26.55;3.25;;;3.00;99.90;;;;;;4842213;29;20664;-67
2022/01/20 04:11:06;;;;;;;26.17;2.80;;;2.90;99.90;;;;;;4845439;29;20053;-66
2022/01/20 04:13:32;;;;;;;25.10;4.10;;;2.70;99.90;;;;;;4843602;29;20045;-66
2022/01/20 04:16:00;;;;;;;31.52;3.17;;;2.70;99.90;;;;;;4848541;29;20876;-65
2022/01/20 04:18:27;;;;;;;24.90;3.28;;;2.50;99.90;;;;;;4853801;29;20033;-65
2022/01/20 04:20:52;;;;;;;31.20;3.05;;;2.50;99.90;;;;;;4851596;29;20052;-66
2022/01/20 04:23:18;;;;;;;34.92;4.03;;;2.50;99.90;;;;;;4842590;29;20104;-66
2022/01/20 04:25:44;;;;;;;23.63;3.00;;;2.50;99.90;;;;;;4851830;29;20033;-66
2022/01/20 04:28:10;;;;;;;30.40;3.15;;;2.50;99.90;;;;;;4852148;29;20082;-67
2022/01/20 04:30:35;;;;;;;28.23;3.10;;;2.70;99.90;;;;;;4866696;29;20028;-66
2022/01/20 04:33:01;;;;;;;14.57;2.95;;;2.70;99.90;;;;;;4851253;29;20132;-66
2022/01/20 04:35:26;;;;;;;15.45;1.52;;;2.70;99.90;;;;;;4845685;29;20048;-67
2022/01/20 04:37:54;;;;;;;17.88;2.75;;;2.70;99.90;;;;;;4845863;29;20021;-67
2022/01/20 04:40:20;;;;;;;13.57;2.03;;;2.70;99.90;;;;;;4863818;29;20434;-67
2022/01/20 04:42:47;;;;;;;9.73;1.55;;;2.80;99.90;;;;;;4839811;29;20029;-66
2022/01/20 04:45:18;;;;;;;12.50;1.38;;;2.40;99.90;;;;;;4846515;29;20486;-67
2022/01/20 04:47:52;;;;;;;12.15;1.55;;;1.40;99.90;;;;;;4853059;29;20028;-67
2022/01/20 04:58:30;;;;;;;18.35;1.80;;;0.80;99.90;;;;;;4853356;29;20030;-67
2022/01/20 05:00:56;;;;;;;13.80;1.90;;;0.70;99.90;;;;;;4838890;29;20486;-67
2022/01/20 05:03:31;;;;;;;12.05;1.25;;;0.70;99.90;;;;;;4865267;29;20049;-67
2022/01/20 05:06:03;;;;;;;16.25;1.17;;;0.80;99.90;;;;;;4838396;29;20059;-67
2022/01/20 05:08:31;;;;;;;8.60;0.88;;;0.80;99.90;;;;;;4839270;29;20030;-68
2022/01/20 05:11:02;;;;;;;6.03;1.10;;;0.80;99.90;;;;;;4848606;29;20052;-68
2022/01/20 05:13:34;;;;;;;10.57;1.52;;;0.90;99.90;;;;;;4849495;29;20561;-68
2022/01/20 05:16:00;;;;;;;7.45;1.20;;;0.90;99.90;;;;;;4833924;29;20037;-68
2022/01/20 05:18:25;;;;;;;10.05;1.00;;;1.00;99.90;;;;;;4842739;29;20450;-67
2022/01/20 05:20:51;;;;;;;8.02;1.27;;;1.00;99.90;;;;;;4844845;29;20426;-69
2022/01/20 05:23:17;;;;;;;16.85;2.25;;;1.00;99.90;;;;;;4849690;29;20046;-69
2022/01/20 05:25:44;;;;;;;9.43;1.00;;;1.00;99.90;;;;;;4851111;29;20044;-69
2022/01/20 05:28:10;;;;;;;8.23;1.67;;;1.00;99.90;;;;;;4851284;29;20033;-69
2022/01/20 05:30:41;;;;;;;10.88;1.42;;;1.10;99.90;;;;;;4841251;29;20124;-69
2022/01/20 05:33:20;;;;;;;15.65;1.50;;;1.10;99.90;;;;;;4849528;29;20065;-69
2022/01/20 05:35:45;;;;;;;11.68;2.13;;;1.20;99.90;;;;;;4848382;29;20144;-70
2022/01/20 05:38:12;;;;;;;14.40;1.60;;;1.20;99.90;;;;;;4851371;29;20033;-69
2022/01/20 05:40:39;;;;;;;13.57;1.63;;;1.20;99.90;;;;;;4845664;29;20039;-69
2022/01/20 05:43:04;;;;;;;19.45;2.20;;;1.30;99.90;;;;;;4844933;29;20033;-70
2022/01/20 05:45:30;;;;;;;11.30;1.60;;;1.30;99.90;;;;;;4844581;29;20029;-70
2022/01/20 05:48:07;;;;;;;9.13;1.48;;;1.40;99.90;;;;;;4840707;29;20060;-69
2022/01/20 05:51:11;;;;;;;8.02;2.00;;;1.40;99.90;;;;;;4818857;29;20042;-69
2022/01/20 05:53:37;;;;;;;13.93;1.73;;;1.40;99.90;;;;;;4802345;29;20042;-69
2022/01/20 05:56:02;;;;;;;12.50;1.60;;;1.20;99.90;;;;;;4834023;29;20048;-69
2022/01/20 05:58:30;;;;;;;14.07;1.75;;;1.30;99.90;;;;;;4836387;29;20041;-69
2022/01/20 06:00:56;;;;;;;16.55;2.03;;;1.30;99.90;;;;;;4849169;29;20026;-69
2022/01/20 06:03:37;;;;;;;10.50;1.88;;;1.30;99.90;;;;;;4858468;29;20101;-69
2022/01/20 06:06:03;;;;;;;11.73;1.73;;;1.30;99.90;;;;;;4850101;29;20031;-69
2022/01/20 06:08:29;;;;;;;11.45;1.95;;;1.40;99.90;;;;;;4848856;29;20029;-69
2022/01/20 06:10:55;;;;;;;11.07;2.50;;;1.40;99.90;;;;;;4847279;29;20577;-68
2022/01/20 06:13:25;;;;;;;16.92;1.63;;;1.40;99.90;;;;;;4849001;29;20080;-68
2022/01/20 06:15:50;;;;;;;7.30;1.42;;;1.50;99.90;;;;;;4848188;29;20585;-69
2022/01/20 06:18:17;;;;;;;12.68;1.65;;;1.50;99.90;;;;;;4843976;29;20097;-69
2022/01/20 06:20:49;;;;;;;9.05;1.75;;;1.50;99.90;;;;;;4866704;29;20063;-69
2022/01/20 06:23:15;;;;;;;20.63;2.20;;;1.50;99.90;;;;;;4840295;29;20097;-69
2022/01/20 06:25:41;;;;;;;13.75;1.67;;;1.40;99.90;;;;;;4850250;29;20036;-69
2022/01/20 06:28:07;;;;;;;8.10;1.42;;;1.40;99.90;;;;;;4847601;29;20028;-69
2022/01/20 06:30:32;;;;;;;18.50;2.17;;;1.30;99.90;;;;;;4845716;29;20040;-69
2022/01/20 06:32:58;;;;;;;10.95;1.52;;;1.20;99.90;;;;;;4846080;29;20140;-68
2022/01/20 06:35:28;;;;;;;8.25;1.60;;;1.10;99.90;;;;;;4846559;29;20073;-68
2022/01/20 06:37:54;;;;;;;13.45;1.60;;;1.10;99.90;;;;;;4847517;29;20037;-69
2022/01/20 06:40:19;;;;;;;12.80;1.30;;;1.00;99.90;;;;;;4849252;29;20032;-69
2022/01/20 06:42:46;;;;;;;11.98;1.17;;;1.00;99.90;;;;;;4845496;29;20139;-69
2022/01/20 06:45:12;;;;;;;18.05;1.60;;;1.00;99.90;;;;;;4842181;29;20135;-69
2022/01/20 06:47:38;;;;;;;10.20;1.70;;;1.00;99.90;;;;;;4846780;29;20051;-69
2022/01/20 06:50:03;;;;;;;8.45;1.10;;;1.00;99.90;;;;;;4846352;29;20041;-68
2022/01/20 06:52:29;;;;;;;8.35;1.45;;;1.00;99.90;;;;;;4848056;29;20057;-68
2022/01/20 06:54:54;;;;;;;10.57;1.25;;;1.10;99.90;;;;;;4847869;29;20165;-66
2022/01/20 06:57:21;;;;;;;6.53;1.20;;;1.00;99.90;;;;;;4863917;29;20033;-65
2022/01/20 06:59:47;;;;;;;8.05;1.08;;;1.00;99.90;;;;;;4847087;29;20044;-65
2022/01/20 07:02:13;;;;;;;22.98;2.88;;;0.70;99.90;;;;;;4828125;29;20997;-66
2022/01/20 07:04:38;;;;;;;14.98;2.20;;;0.90;99.90;;;;;;4832423;29;20028;-66
2022/01/20 07:07:04;;;;;;;13.90;1.38;;;0.80;99.90;;;;;;4844602;29;20056;-66
2022/01/20 07:09:42;;;;;;;8.18;1.23;;;0.80;99.90;;;;;;4861258;29;20065;-66
2022/01/20 07:12:21;;;;;;;6.60;1.65;;;0.80;99.90;;;;;;4846112;29;20034;-66
2022/01/20 07:14:47;;;;;;;12.02;2.53;;;0.80;99.90;;;;;;4859146;29;20021;-65
2022/01/20 07:17:13;;;;;;;11.30;1.58;;;0.80;99.90;;;;;;4849484;29;20025;-66
2022/01/20 07:19:43;;;;;;;16.38;1.67;;;0.80;99.90;;;;;;4847122;29;20033;-65
2022/01/20 07:22:10;;;;;;;12.35;1.85;;;0.80;99.90;;;;;;4844613;29;20556;-66
2022/01/20 07:24:37;;;;;;;10.13;1.10;;;0.80;99.90;;;;;;4840510;29;20025;-65
2022/01/20 07:27:12;;;;;;;;;;;0.80;99.90;;;;;;4818121;29;20221;-66
2022/01/20 07:29:37;;;;;;;14.80;2.42;;;0.70;99.90;;;;;;4850437;29;20464;-66
2022/01/20 07:32:03;;;;;;;7.82;1.52;;;0.70;99.90;;;;;;4843645;29;20025;-66
2022/01/20 07:34:29;;;;;;;9.02;2.15;;;0.70;99.90;;;;;;4843330;29;20863;-66
2022/01/20 07:36:54;;;;;;;13.80;1.38;;;0.70;99.90;;;;;;4847245;29;20029;-66
2022/01/20 07:39:20;;;;;;;9.40;1.23;;;0.70;99.90;;;;;;4847634;29;20089;-66
2022/01/20 07:41:46;;;;;;;7.13;1.30;;;0.70;99.90;;;;;;4848858;29;20033;-66
2022/01/20 07:44:30;;;;;;;9.55;1.75;;;0.80;99.90;;;;;;4866549;29;20100;-66
2022/01/20 07:47:06;;;;;;;9.85;1.63;;;0.80;99.90;;;;;;4845443;29;20777;-68
2022/01/20 07:49:31;;;;;;;7.22;1.27;;;0.90;99.90;;;;;;4862347;29;20048;-69
2022/01/20 07:51:57;;;;;;;8.32;1.85;;;0.90;99.90;;;;;;4848883;29;20026;-69
2022/01/20 07:54:22;;;;;;;12.15;1.88;;;1.00;99.90;;;;;;4849780;29;20124;-69
2022/01/20 07:56:49;;;;;;;9.45;1.30;;;1.00;99.90;;;;;;4848452;29;20029;-68
2022/01/20 07:59:14;;;;;;;14.48;1.80;;;1.00;99.90;;;;;;4849503;29;20195;-68
2022/01/20 08:01:43;;;;;;;12.48;1.33;;;1.10;99.90;;;;;;4848720;29;20040;-68
2022/01/20 08:04:09;;;;;;;13.68;1.85;;;1.20;99.90;;;;;;4858907;29;20033;-68
2022/01/20 08:06:35;;;;;;;13.73;2.03;;;1.20;99.90;;;;;;4850101;29;20044;-68
2022/01/20 08:09:09;;;;;;;12.57;1.85;;;1.30;99.90;;;;;;4845597;29;20036;-69
2022/01/20 08:11:49;;;;;;;18.75;1.88;;;1.40;99.90;;;;;;4864232;29;20681;-68
2022/01/20 08:14:34;;;;;;;13.00;1.55;;;1.40;99.90;;;;;;4850149;29;20112;-68
2022/01/20 08:17:00;;;;;;;18.35;3.15;;;1.50;99.90;;;;;;4850680;29;20517;-68
2022/01/20 08:19:29;;;;;;;14.13;2.10;;;1.50;99.90;;;;;;4847208;29;20073;-68
2022/01/20 08:21:55;;;;;;;12.68;2.00;;;1.60;99.90;;;;;;4847072;29;20078;-68
2022/01/20 08:24:21;;;;;;;12.43;1.92;;;1.70;99.90;;;;;;4837833;29;20049;-68
2022/01/20 08:26:46;;;;;;;12.45;2.47;;;1.70;99.90;;;;;;4848144;29;20037;-68
2022/01/20 08:29:12;;;;;;;12.20;1.73;;;1.80;99.90;;;;;;4847607;29;20072;-68
2022/01/20 08:31:38;;;;;;;9.52;1.50;;;1.80;99.90;;;;;;4851308;29;20040;-68
2022/01/20 08:34:23;;;;;;;18.98;3.67;;;1.80;99.90;;;;;;4849290;29;20128;-68
2022/01/20 08:37:21;;;;;;;11.90;2.05;;;1.70;99.90;;;;;;4854018;29;20859;-68
2022/01/20 08:39:46;;;;;;;16.75;2.72;;;1.70;99.90;;;;;;4850582;29;20032;-68
2022/01/20 08:42:12;;;;;;;19.30;2.60;;;1.70;99.90;;;;;;4848490;29;20041;-68
2022/01/20 08:44:37;;;;;;;16.98;1.98;;;1.70;99.90;;;;;;4849288;29;20176;-68
2022/01/20 08:47:03;;;;;;;21.95;3.58;;;1.70;99.90;;;;;;4842283;29;20079;-68
2022/01/20 08:49:29;;;;;;;16.15;2.20;;;1.80;99.90;;;;;;4838065;29;20033;-68
2022/01/20 08:51:56;;;;;;;13.73;3.13;;;1.80;99.90;;;;;;4848430;29;20549;-68
2022/01/20 08:54:27;;;;;;;9.88;1.88;;;1.90;99.90;;;;;;4846832;29;20112;-68
2022/01/20 08:57:02;;;;;;;17.63;2.50;;;1.90;99.90;;;;;;4849785;29;20037;-69
2022/01/20 08:59:28;;;;;;;15.98;2.53;;;2.10;99.90;;;;;;4847239;29;20036;-68
2022/01/20 09:01:53;;;;;;;13.70;1.60;;;2.20;99.90;;;;;;4851198;29;20152;-68
2022/01/20 09:04:19;;;;;;;21.10;3.83;;;2.30;99.90;;;;;;4859775;29;20083;-68
2022/01/20 09:07:04;;;;;;;17.27;2.17;;;2.20;99.90;;;;;;4858093;29;20041;-68
2022/01/20 09:09:39;;;;;;;18.63;2.22;;;2.00;99.90;;;;;;4854916;29;20069;-68
2022/01/20 09:17:21;;;;;;;27.88;2.70;;;2.30;99.90;;;;;;4849068;29;20874;-68
2022/01/20 09:19:47;;;;;;;17.45;2.10;;;2.50;99.90;;;;;;4848504;29;20040;-68
2022/01/20 09:22:13;;;;;;;17.02;2.28;;;2.50;99.90;;;;;;4844671;29;20120;-68
2022/01/20 09:24:38;;;;;;;12.15;1.83;;;2.60;99.90;;;;;;4847379;29;20033;-68
2022/01/20 09:27:05;;;;;;;19.48;3.40;;;2.50;99.90;;;;;;4845374;29;20148;-68
2022/01/20 09:29:30;;;;;;;17.38;2.67;;;2.40;99.90;;;;;;4862538;29;20774;-68
2022/01/20 09:31:56;;;;;;;24.70;5.18;;;2.30;99.90;;;;;;4844991;29;20033;-68
2022/01/20 09:34:27;;;;;;;20.75;2.75;;;2.30;99.90;;;;;;4834167;29;20352;-68
2022/01/20 09:36:54;;;;;;;14.60;2.05;;;2.40;99.90;;;;;;4850330;29;20569;-68
2022/01/20 09:39:20;;;;;;;13.43;1.95;;;2.60;99.90;;;;;;4841826;29;20033;-68
2022/01/20 09:42:07;;;;;;;16.05;2.22;;;2.60;99.90;;;;;;4842906;29;20038;-68
2022/01/20 09:44:33;;;;;;;16.55;2.22;;;2.70;99.90;;;;;;4841833;29;20033;-68
2022/01/20 09:46:59;;;;;;;17.17;2.28;;;2.70;99.90;;;;;;4846315;29;20166;-68
2022/01/20 09:49:53;;;;;;;15.63;2.28;;;2.80;99.90;;;;;;4859165;29;20132;-68
2022/01/20 09:52:38;;;;;;;13.30;1.88;;;2.90;99.90;;;;;;4858853;29;20116;-68
2022/01/20 09:55:24;;;;;;;;;;;3.00;99.90;;;;;;4858871;29;20424;-68
2022/01/20 09:57:50;;;;;;;19.13;3.00;;;3.10;99.90;;;;;;4848747;29;19916;-68
2022/01/20 10:00:16;;;;;;;18.73;2.95;;;3.00;99.90;;;;;;4849836;29;20036;-69
2022/01/20 10:02:41;;;;;;;17.08;2.38;;;3.10;99.90;;;;;;4843520;29;20033;-69
2022/01/20 10:05:06;;;;;;;21.30;2.42;;;3.10;99.90;;;;;;4847322;29;20025;-68
2022/01/20 10:07:37;;;;;;;21.90;2.72;;;3.00;99.90;;;;;;4841982;29;20033;-69
2022/01/20 10:10:09;;;;;;;15.43;2.33;;;2.90;99.90;;;;;;4845578;29;20033;-69
2022/01/20 10:12:53;;;;;;;14.05;2.17;;;3.00;99.90;;;;;;4868904;29;20056;-68
2022/01/20 10:15:29;;;;;;;;;;;3.10;99.90;;;;;;4848757;29;20069;-68
2022/01/20 10:18:15;;;;;;;18.75;2.83;;;3.20;99.90;;;;;;4860628;29;20476;-68
2022/01/20 10:20:54;;;;;;;18.13;2.20;;;3.10;99.90;;;;;;4846940;29;20031;-68
2022/01/20 10:23:44;;;;;;;20.27;2.53;;;3.10;99.90;;;;;;4844050;29;20096;-68
2022/01/20 10:26:29;;;;;;;21.20;2.55;;;3.10;99.90;;;;;;4863796;29;20426;-68
2022/01/20 10:29:00;;;;;;;23.48;3.20;;;3.20;99.90;;;;;;4830531;29;20033;-68
2022/01/20 10:31:28;;;;;;;24.08;3.97;;;3.10;99.90;;;;;;4861548;29;20033;-68
2022/01/20 10:33:53;;;;;;;16.60;2.75;;;3.30;99.90;;;;;;4849906;29;20033;-68
2022/01/20 10:36:19;;;;;;;22.17;3.55;;;3.50;99.90;;;;;;4846783;29;20041;-68
2022/01/20 10:39:05;;;;;;;28.10;2.42;;;3.80;99.90;;;;;;4855337;29;20056;-68
2022/01/20 10:41:31;;;;;;;20.85;2.22;;;4.00;99.90;;;;;;4851274;29;20041;-68
2022/01/20 10:43:57;;;;;;;28.02;3.85;;;4.20;99.90;;;;;;4836690;29;20105;-68
2022/01/20 10:46:33;;;;;;;25.42;3.40;;;4.20;99.90;;;;;;4842348;29;20049;-68
2022/01/20 10:48:59;;;;;;;23.00;4.10;;;4.10;99.90;;;;;;4849247;29;20036;-68
2022/01/20 10:51:25;;;;;;;20.45;2.83;;;4.10;99.90;;;;;;4844324;29;20640;-68
2022/01/20 10:53:54;;;;;;;17.42;2.65;;;4.10;99.90;;;;;;4848812;29;20856;-68
2022/01/20 10:56:20;;;;;;;10.90;2.47;;;4.10;99.90;;;;;;4845916;29;20061;-68
2022/01/20 10:58:46;;;;;;;12.25;2.60;;;4.10;99.90;;;;;;4858161;29;20780;-68
2022/01/20 11:01:11;;;;;;;17.27;2.67;;;4.00;99.90;;;;;;4847761;29;20130;-68
2022/01/20 11:03:37;;;;;;;24.15;3.00;;;4.00;99.90;;;;;;4849115;29;20545;-68
2022/01/20 11:06:03;;;;;;;27.83;2.97;;;4.00;99.90;;;;;;4846718;29;20025;-68
2022/01/20 11:08:37;;;;;;;15.80;2.58;;;4.10;99.90;;;;;;4863576;29;20067;-68
2022/01/20 11:11:03;;;;;;;25.67;2.50;;;4.10;99.90;;;;;;4844993;29;20025;-69
2022/01/20 11:13:49;;;;;;;;;;;4.20;99.90;;;;;;4835914;29;20112;-69
2022/01/20 11:16:14;;;;;;;14.57;2.38;;;4.30;99.90;;;;;;4848475;29;20298;-68
2022/01/20 11:18:42;;;;;;;14.38;2.25;;;4.20;99.90;;;;;;4848667;29;20033;-68
2022/01/20 11:21:08;;;;;;;19.63;2.90;;;4.10;99.90;;;;;;4853830;29;20025;-68
2022/01/20 11:23:37;;;;;;;20.65;3.38;;;4.20;99.90;;;;;;4849941;29;20047;-68
2022/01/20 11:26:22;;;;;;;18.63;3.15;;;4.30;99.90;;;;;;4862734;29;20632;-68
2022/01/20 11:29:03;;;;;;;25.65;4.47;;;4.20;99.90;;;;;;4852422;29;20033;-68
2022/01/20 11:31:48;;;;;;;20.75;3.00;;;4.10;99.90;;;;;;4866746;29;20101;-68
2022/01/20 11:34:26;;;;;;;19.05;2.47;;;4.10;99.90;;;;;;4848440;29;20060;-68
2022/01/20 11:36:51;;;;;;;13.73;2.33;;;4.20;99.90;;;;;;4854661;29;20049;-68
2022/01/20 11:39:17;;;;;;;20.05;3.08;;;4.20;99.90;;;;;;4860107;29;20037;-69
2022/01/20 11:41:49;;;;;;;12.95;2.42;;;4.00;99.90;;;;;;4860256;29;20043;-69
2022/01/20 11:44:15;;;;;;;15.52;2.85;;;3.90;99.90;;;;;;4862569;29;20508;-68
2022/01/20 11:46:41;;;;;;;13.50;2.22;;;3.90;99.90;;;;;;4866523;29;20024;-68
2022/01/20 11:49:08;;;;;;;15.18;2.22;;;3.90;99.90;;;;;;4863196;29;20048;-68
2022/01/20 11:51:34;;;;;;;18.90;2.53;;;3.60;99.90;;;;;;4864990;29;20071;-69
2022/01/20 11:53:59;;;;;;;13.45;1.92;;;3.40;99.90;;;;;;4864528;29;20128;-69
2022/01/20 11:56:25;;;;;;;17.73;3.08;;;3.30;99.90;;;;;;4864602;29;20045;-69
2022/01/20 11:58:51;;;;;;;18.52;3.13;;;3.20;99.90;;;;;;4863961;29;20072;-69
2022/01/20 12:01:16;;;;;;;16.85;2.00;;;3.20;99.90;;;;;;4848802;29;20021;-69
2022/01/20 12:03:42;;;;;;;19.80;2.17;;;3.10;99.90;;;;;;4864737;29;20033;-69
2022/01/20 12:06:14;;;;;;;19.00;2.63;;;3.20;99.90;;;;;;4850419;29;20036;-66
2022/01/20 12:08:55;;;;;;;14.27;2.67;;;3.20;99.90;;;;;;4866318;29;20037;-65
2022/01/20 12:11:22;;;;;;;19.75;2.38;;;3.20;99.90;;;;;;4866115;29;20115;-65
2022/01/20 12:13:48;;;;;;;23.33;2.60;;;3.20;99.90;;;;;;4850131;29;20068;-65
2022/01/20 12:16:13;;;;;;;13.60;1.80;;;3.20;99.90;;;;;;4856707;29;20173;-65
2022/01/20 12:18:39;;;;;;;11.65;2.03;;;3.70;99.90;;;;;;4862735;29;20140;-65
2022/01/20 12:21:08;;;;;;;11.82;2.05;;;4.30;99.90;;;;;;4849882;29;20457;-66
2022/01/20 12:23:34;;;;;;;19.42;3.03;;;4.60;99.90;;;;;;4864992;29;20044;-65
2022/01/20 12:25:59;;;;;;;15.35;2.42;;;4.90;99.90;;;;;;4864099;29;20337;-65
2022/01/20 12:28:25;;;;;;;13.75;2.40;;;4.90;99.90;;;;;;4848555;29;20040;-65
2022/01/20 12:30:51;;;;;;;17.65;2.38;;;4.80;99.90;;;;;;4849542;29;20037;-65
2022/01/20 12:33:16;;;;;;;15.07;1.95;;;4.70;99.90;;;;;;4865398;29;20044;-65
2022/01/20 12:35:42;;;;;;;15.73;2.55;;;4.80;99.90;;;;;;4858413;29;20041;-66
2022/01/20 12:38:07;;;;;;;14.30;2.42;;;4.80;99.90;;;;;;4865033;29;20649;-65
2022/01/20 12:40:34;;;;;;;13.30;2.03;;;4.40;99.90;;;;;;4851062;29;20830;-66
2022/01/20 12:42:59;;;;;;;13.00;1.90;;;4.00;99.90;;;;;;4864802;29;20033;-65
2022/01/20 12:48:09;;;;;;;22.92;3.58;;;3.70;99.90;;;;;;4864889;29;20079;-66
2022/01/20 12:50:34;;;;;;;13.88;2.35;;;3.80;99.90;;;;;;4841156;29;20339;-66
2022/01/20 12:53:00;;;;;;;14.73;1.80;;;4.00;99.90;;;;;;4861140;29;20037;-66
2022/01/20 12:55:25;;;;;;;13.82;1.98;;;4.40;99.90;;;;;;4865587;29;20041;-66
2022/01/20 12:57:50;;;;;;;18.55;2.42;;;4.80;99.90;;;;;;4866361;29;20056;-66
2022/01/20 13:00:16;;;;;;;21.23;4.07;;;5.30;99.90;;;;;;4860106;29;20041;-66
2022/01/20 13:02:41;;;;;;;16.13;2.55;;;5.40;99.90;;;;;;4851656;29;20964;-69
2022/01/20 13:05:07;;;;;;;21.52;2.53;;;5.00;99.90;;;;;;4860305;29;20610;-69
2022/01/20 13:07:34;;;;;;;22.58;2.78;;;4.50;99.90;;;;;;4847478;29;20041;-69
2022/01/20 13:10:04;;;;;;;18.17;2.08;;;4.40;99.90;;;;;;4862088;29;20037;-69
2022/01/20 13:12:29;;;;;;;19.23;2.63;;;4.20;99.90;;;;;;4862545;29;20029;-69
2022/01/20 13:14:55;;;;;;;19.88;2.28;;;4.10;99.90;;;;;;4856164;29;20026;-69
2022/01/20 13:17:22;;;;;;;13.45;1.75;;;4.10;99.90;;;;;;4862753;29;20046;-69
2022/01/20 13:19:48;;;;;;;20.63;2.67;;;4.20;99.90;;;;;;4851393;29;20033;-69
2022/01/20 13:22:17;;;;;;;21.63;2.72;;;4.10;99.90;;;;;;4866586;29;20061;-68
2022/01/20 13:24:43;;;;;;;21.88;2.80;;;4.10;99.90;;;;;;4859899;29;20045;-68
2022/01/20 13:27:08;;;;;;;13.55;2.30;;;3.80;99.90;;;;;;4860517;29;20034;-69
2022/01/20 13:29:34;;;;;;;33.65;3.47;;;3.60;99.90;;;;;;4853229;29;20051;-69
2022/01/20 13:31:59;;;;;;;14.93;2.95;;;3.60;99.90;;;;;;4845034;29;20553;-69
2022/01/20 13:34:25;;;;;;;16.88;2.75;;;3.80;99.90;;;;;;4859061;29;20054;-69
2022/01/20 13:36:51;;;;;;;22.42;3.83;;;4.10;99.90;;;;;;4849206;29;20041;-68
2022/01/20 13:39:16;;;;;;;16.33;3.88;;;4.30;99.90;;;;;;4858271;29;20041;-69
2022/01/20 13:41:43;;;;;;;10.98;1.73;;;4.30;99.90;;;;;;4860857;29;20040;-69
2022/01/20 13:46:53;;;;;;;21.17;6.25;;;4.40;99.90;;;;;;4862144;29;20123;-69
2022/01/20 13:49:18;;;;;;;16.48;2.72;;;4.50;99.90;;;;;;4851295;29;20051;-69
2022/01/20 13:51:44;;;;;;;13.63;1.88;;;4.50;99.90;;;;;;4863791;29;20035;-69
2022/01/20 13:54:09;;;;;;;20.80;2.33;;;4.50;99.90;;;;;;4862226;29;20116;-69
2022/01/20 13:56:35;;;;;;;13.65;2.08;;;4.40;99.90;;;;;;4859880;29;20079;-69
2022/01/20 13:59:00;;;;;;;18.70;2.40;;;4.00;99.90;;;;;;4845749;29;20036;-69
2022/01/20 14:01:26;;;;;;;16.17;2.45;;;3.70;99.90;;;;;;4863839;29;20045;-69
2022/01/20 14:03:52;;;;;;;14.68;2.38;;;3.50;99.90;;;;;;4847080;29;20108;-69
2022/01/20 14:06:17;;;;;;;18.83;2.55;;;3.20;99.90;;;;;;4858253;29;20899;-69
2022/01/20 14:08:42;;;;;;;13.90;2.30;;;3.10;99.90;;;;;;4857623;29;20048;-68